Time;durP1;ratioP1;P1;durP2;ratioP2;P2;SDS_P1;SDS_P2;PMS_P1;PMS_P2;Temp;Humidity;BMP_temperature;BMP_pressure;BME280_temperature;BME280_humidity;BME280_pressure;Samples;Min_cycle;Max_cycle;Signal;HPM_P1;HPM_P2
2022/04/30 00:01:30;;;;;;;;;;;14.50;99.90;;;;;;5011051;28;19944;-74
2022/04/30 00:03:56;;;;;;;;;;;14.60;99.90;;;;;;5010433;28;19913;-74
2022/04/30 00:06:21;;;;;;;;;;;14.50;99.90;;;;;;5009386;28;19956;-73
2022/04/30 00:08:47;;;;;;;;;;;14.50;99.90;;;;;;5011117;28;19913;-72
2022/04/30 00:11:13;;;;;;;;;;;14.50;99.90;;;;;;5007945;28;19916;-74
2022/04/30 00:13:38;;;;;;;;;;;14.70;99.90;;;;;;5012705;28;20357;-71
2022/04/30 00:16:04;;;;;;;;;;;14.60;99.90;;;;;;5009860;28;20431;-72
2022/04/30 00:18:29;;;;;;;;;;;14.50;99.90;;;;;;5008266;28;19909;-74
2022/04/30 00:20:58;;;;;;;;;;;14.50;99.90;;;;;;5011915;28;19921;-72
2022/04/30 00:23:23;;;;;;;;;;;14.40;99.90;;;;;;5012556;28;19906;-73
2022/04/30 00:25:50;;;;;;;;;;;14.40;99.90;;;;;;5012919;28;19909;-72
2022/04/30 00:28:17;;;;;;;;;;;14.30;99.90;;;;;;5009762;28;20342;-73
2022/04/30 00:30:44;;;;;;;;;;;14.40;99.90;;;;;;5011278;28;20362;-74
2022/04/30 00:33:10;;;;;;;;;;;14.60;99.90;;;;;;5010404;28;19929;-73
2022/04/30 00:35:36;;;;;;;;;;;14.60;99.90;;;;;;5012065;28;19910;-72
2022/04/30 00:38:02;;;;;;;;;;;14.70;99.90;;;;;;5009883;28;19932;-73
2022/04/30 00:40:27;;;;;;;;;;;14.80;99.90;;;;;;5011269;28;19913;-72
2022/04/30 00:42:53;;;;;;;;;;;14.90;99.90;;;;;;5011931;28;19910;-74
2022/04/30 00:45:20;;;;;;;;;;;15.00;99.90;;;;;;5010408;28;19909;-73
2022/04/30 00:47:46;;;;;;;;;;;15.10;99.90;;;;;;5011141;28;19913;-74
2022/04/30 00:50:14;;;;;;;;;;;15.20;99.90;;;;;;5006816;28;19917;-72
2022/04/30 00:52:42;;;;;;;;;;;15.20;99.90;;;;;;5003949;28;19961;-74
2022/04/30 00:55:08;;;;;;;;;;;15.30;99.90;;;;;;5009452;28;20307;-72
2022/04/30 00:57:36;;;;;;;;;;;15.30;99.90;;;;;;5009562;28;19920;-73
2022/04/30 01:00:03;;;;;;;;;;;15.30;99.90;;;;;;5009642;28;20087;-72
2022/04/30 01:02:29;;;;;;;;;;;15.30;99.90;;;;;;5009010;28;20337;-72
2022/04/30 01:04:56;;;;;;;;;;;15.40;99.90;;;;;;5009385;28;20288;-72
2022/04/30 01:07:22;;;;;;;;;;;15.40;99.90;;;;;;5008229;28;20274;-73
2022/04/30 01:09:48;;;;;;;;;;;15.40;99.90;;;;;;5008303;28;19916;-72
2022/04/30 01:12:14;;;;;;;;;;;15.30;99.90;;;;;;5007267;28;19917;-73
2022/04/30 01:14:41;;;;;;;;;;;15.20;99.90;;;;;;5006616;28;20009;-74
2022/04/30 01:17:08;;;;;;;;;;;15.10;99.90;;;;;;5010440;28;19963;-72
2022/04/30 01:19:37;;;;;;;;;;;15.00;99.90;;;;;;5009671;28;19964;-72
2022/04/30 01:22:09;;;;;;;;;;;14.90;99.90;;;;;;5011881;28;19988;-73
2022/04/30 01:24:35;;;;;;;;;;;14.80;99.90;;;;;;5010314;28;20340;-73
2022/04/30 01:27:01;;;;;;;;;;;14.80;99.90;;;;;;5009657;28;19913;-73
2022/04/30 01:29:30;;;;;;;;;;;14.70;99.90;;;;;;5010206;28;20024;-73
2022/04/30 01:37:26;;;;;;;;;;;14.70;99.90;;;;;;5006619;28;19998;-73
2022/04/30 01:39:57;;;;;;;;;;;14.60;99.90;;;;;;5010334;28;19924;-74
2022/04/30 01:42:23;;;;;;;;;;;14.50;99.90;;;;;;5005217;28;19957;-71
2022/04/30 01:44:49;;;;;;;;;;;14.50;99.90;;;;;;5006312;28;20402;-72
2022/04/30 01:47:15;;;;;;;;;;;14.50;99.90;;;;;;5003642;28;19916;-73
2022/04/30 01:49:41;;;;;;;;;;;14.40;99.90;;;;;;5007771;28;19988;-72
2022/04/30 01:52:07;;;;;;;;;;;14.40;99.90;;;;;;5007512;28;20005;-74
2022/04/30 01:54:33;;;;;;;;;;;14.30;99.90;;;;;;5008340;28;20302;-73
2022/04/30 01:56:59;;;;;;;;;;;14.20;99.90;;;;;;5006512;28;19950;-73
2022/04/30 01:59:24;;;;;;;;;;;14.20;99.90;;;;;;5009861;28;19913;-74
2022/04/30 02:01:50;;;;;;;;;;;14.20;99.90;;;;;;5007533;28;19968;-72
2022/04/30 02:04:16;;;;;;;;;;;14.20;99.90;;;;;;5009809;28;19910;-71
2022/04/30 02:06:42;;;;;;;;;;;14.30;99.90;;;;;;5006824;28;19956;-72
2022/04/30 02:09:07;;;;;;;;;;;14.30;99.90;;;;;;5008922;28;20037;-72
2022/04/30 02:11:33;;;;;;;;;;;14.20;99.90;;;;;;5010340;28;20000;-72
2022/04/30 02:14:00;;;;;;;;;;;14.30;99.90;;;;;;5007437;28;20357;-73
2022/04/30 02:16:27;;;;;;;;;;;14.20;99.90;;;;;;5009318;28;19905;-73
2022/04/30 02:18:53;;;;;;;;;;;14.10;99.90;;;;;;5009234;28;20011;-72
2022/04/30 02:21:21;;;;;;;;;;;14.00;99.90;;;;;;5008977;28;19960;-71
2022/04/30 02:23:50;;;;;;;;;;;14.00;99.90;;;;;;5009485;28;19914;-72
2022/04/30 02:26:16;;;;;;;;;;;14.10;99.90;;;;;;5010259;28;19906;-73
2022/04/30 02:28:42;;;;;;;;;;;14.10;99.90;;;;;;5010024;28;19928;-74
2022/04/30 02:31:18;;;;;;;;;;;14.10;99.90;;;;;;5010038;28;19996;-73
2022/04/30 02:33:44;;;;;;;;;;;14.10;99.90;;;;;;5008408;28;19920;-73
2022/04/30 02:36:09;;;;;;;;;;;14.10;99.90;;;;;;5007945;28;19909;-73
2022/04/30 02:38:36;;;;;;;;;;;14.10;99.90;;;;;;5009705;28;20040;-73
2022/04/30 02:41:02;;;;;;;;;;;14.20;99.90;;;;;;5007716;28;19914;-72
2022/04/30 02:43:28;;;;;;;;;;;14.30;99.90;;;;;;5007007;28;19917;-72
2022/04/30 02:45:54;;;;;;;;;;;14.20;99.90;;;;;;5007539;28;19917;-73
2022/04/30 02:48:20;;;;;;;;;;;14.10;99.90;;;;;;5005153;28;19917;-73
2022/04/30 02:50:48;;;;;;;;;;;14.10;99.90;;;;;;5004794;28;20059;-72
2022/04/30 02:53:14;;;;;;;;;;;14.20;99.90;;;;;;5007602;28;20322;-73
2022/04/30 02:55:44;;;;;;;;;;;14.20;99.90;;;;;;5007796;28;19920;-72
2022/04/30 03:00:55;;;;;;;;;;;14.20;99.90;;;;;;5007799;28;19924;-75
2022/04/30 03:03:21;;;;;;;;;;;14.20;99.90;;;;;;5005299;28;20250;-74
2022/04/30 03:05:50;;;;;;;;;;;14.20;99.90;;;;;;5007853;28;20409;-74
2022/04/30 03:08:20;;;;;;;;;;;14.10;99.90;;;;;;5010649;28;20362;-72
2022/04/30 03:10:47;;;;;;;;;;;14.10;99.90;;;;;;5016714;28;19909;-72
2022/04/30 03:13:14;;;;;;;;;;;14.10;99.90;;;;;;5018948;28;19916;-72
2022/04/30 03:15:40;;;;;;;;;;;14.10;99.90;;;;;;5017809;28;19910;-72
2022/04/30 03:23:38;;;;;;;;;;;14.00;99.90;;;;;;5011619;28;19916;-72
2022/04/30 03:26:05;;;;;;;;;;;14.10;99.90;;;;;;5012767;28;20137;-73
2022/04/30 03:28:32;;;;;;;;;;;14.00;99.90;;;;;;5010515;28;20015;-73
2022/04/30 03:30:58;;;;;;;;;;;14.00;99.90;;;;;;5008717;28;20028;-73
2022/04/30 03:33:24;;;;;;;;;;;14.10;99.90;;;;;;5009608;28;20419;-72
2022/04/30 03:35:50;;;;;;;;;;;14.00;99.90;;;;;;5011044;28;19995;-72
2022/04/30 03:38:15;;;;;;;;;;;14.00;99.90;;;;;;5010491;28;20358;-71
2022/04/30 03:40:41;;;;;;;;;;;14.10;99.90;;;;;;5012504;28;19994;-72
2022/04/30 03:43:11;;;;;;;;;;;14.10;99.90;;;;;;5011797;28;19909;-72
2022/04/30 03:45:37;;;;;;;;;;;14.10;99.90;;;;;;5008756;28;19965;-73
2022/04/30 03:48:03;;;;;;;;;;;14.30;99.90;;;;;;5010262;28;20326;-73
2022/04/30 03:50:28;;;;;;;;;;;14.30;99.90;;;;;;5010702;28;19909;-73
2022/04/30 03:52:54;;;;;;;;;;;14.20;99.90;;;;;;5006989;28;20028;-74
2022/04/30 03:55:20;;;;;;;;;;;14.20;99.90;;;;;;5010932;28;19956;-73
2022/04/30 03:57:45;;;;;;;;;;;14.10;99.90;;;;;;5009662;28;19909;-73
2022/04/30 04:00:11;;;;;;;;;;;14.20;99.90;;;;;;5009589;28;19940;-73
2022/04/30 04:02:39;;;;;;;;;;;14.20;99.90;;;;;;5012497;28;19913;-74
2022/04/30 04:05:10;;;;;;;;;;;14.20;99.90;;;;;;5010550;28;19909;-74
2022/04/30 04:07:36;;;;;;;;;;;14.20;99.90;;;;;;5009181;28;21856;-73
2022/04/30 04:10:02;;;;;;;;;;;14.20;99.90;;;;;;5008786;28;19924;-72
2022/04/30 04:12:28;;;;;;;;;;;14.20;99.90;;;;;;5008827;28;20137;-73
2022/04/30 04:17:38;;;;;;;;;;;14.10;99.90;;;;;;5011155;28;20385;-74
2022/04/30 04:20:05;;;;;;;;;;;14.10;99.90;;;;;;5011694;28;19913;-75
2022/04/30 04:22:30;;;;;;;;;;;14.10;99.90;;;;;;5011961;28;19971;-74
2022/04/30 04:27:40;;;;;;;;;;;14.10;99.90;;;;;;5014876;28;20008;-73
2022/04/30 04:30:06;;;;;;;;;;;14.10;99.90;;;;;;5012146;28;20000;-73
2022/04/30 04:32:32;;;;;;;;;;;14.20;99.90;;;;;;5011063;28;20011;-73
2022/04/30 04:34:57;;;;;;;;;;;14.20;99.90;;;;;;5008964;28;20464;-74
2022/04/30 04:37:23;;;;;;;;;;;14.30;99.90;;;;;;5011222;28;19905;-72
2022/04/30 04:39:49;;;;;;;;;;;14.30;99.90;;;;;;5010383;28;19934;-74
2022/04/30 04:42:14;;;;;;;;;;;14.30;99.90;;;;;;5011089;28;19992;-72
2022/04/30 04:44:40;;;;;;;;;;;14.30;99.90;;;;;;5011614;28;19909;-72
2022/04/30 04:47:06;;;;;;;;;;;14.40;99.90;;;;;;5009896;28;19909;-72
2022/04/30 04:49:32;;;;;;;;;;;14.40;99.90;;;;;;5005679;28;19909;-72
2022/04/30 04:51:57;;;;;;;;;;;14.50;99.90;;;;;;5002089;28;19910;-73
2022/04/30 04:54:23;;;;;;;;;;;14.50;99.90;;;;;;5010120;28;19916;-71
2022/04/30 04:56:49;;;;;;;;;;;14.50;99.90;;;;;;5008775;28;19913;-69
2022/04/30 04:59:14;;;;;;;;;;;14.40;99.90;;;;;;5011693;28;20288;-72
2022/04/30 05:01:40;;;;;;;;;;;14.40;99.90;;;;;;5007361;28;19905;-74
2022/04/30 05:04:09;;;;;;;;;;;14.40;99.90;;;;;;5009591;28;20370;-72
2022/04/30 05:06:35;;;;;;;;;;;14.40;99.90;;;;;;5009952;28;19909;-72
2022/04/30 05:09:00;;;;;;;;;;;14.40;99.90;;;;;;5006858;28;19956;-73
2022/04/30 05:11:38;;;;;;;;;;;14.40;99.90;;;;;;5010500;28;19917;-77
2022/04/30 05:14:04;;;;;;;;;;;14.40;99.90;;;;;;5006880;28;19909;-76
2022/04/30 05:16:35;;;;;;;;;;;14.40;99.90;;;;;;5010223;28;19910;-73
2022/04/30 05:19:05;;;;;;;;;;;14.50;99.90;;;;;;5010631;28;19936;-72
2022/04/30 05:21:30;;;;;;;;;;;14.60;99.90;;;;;;5006282;28;20370;-72
2022/04/30 05:23:56;;;;;;;;;;;14.70;99.90;;;;;;5007934;28;19915;-73
2022/04/30 05:26:22;;;;;;;;;;;14.80;99.90;;;;;;5008104;28;19914;-73
2022/04/30 05:28:47;;;;;;;;;;;14.90;99.90;;;;;;5009272;28;19905;-75
2022/04/30 05:31:14;;;;;;;;;;;14.90;99.90;;;;;;5005463;28;19933;-77
2022/04/30 05:33:39;;;;;;;;;;;15.00;99.90;;;;;;5006662;28;19965;-73
2022/04/30 05:36:05;;;;;;;;;;;15.20;99.90;;;;;;5010974;28;20318;-73
2022/04/30 05:38:32;;;;;;;;;;;15.20;99.90;;;;;;5012915;28;19933;-74
2022/04/30 05:40:57;;;;;;;;;;;15.30;99.90;;;;;;5013179;28;19917;-73
2022/04/30 05:43:23;;;;;;;;;;;15.40;99.90;;;;;;5012174;28;19913;-73
2022/04/30 05:45:50;;;;;;;;;;;15.60;99.90;;;;;;5008263;28;20349;-74
2022/04/30 05:48:16;;;;;;;;;;;15.80;99.90;;;;;;5008058;28;19916;-74
2022/04/30 05:50:42;;;;;;;;;;;15.80;99.90;;;;;;5007750;28;20004;-75
2022/04/30 05:53:08;;;;;;;;;;;16.00;99.90;;;;;;5003016;28;19914;-74
2022/04/30 05:55:34;;;;;;;;;;;16.20;99.90;;;;;;5008772;28;19916;-72
2022/04/30 05:58:00;;;;;;;;;;;16.20;99.90;;;;;;5006828;28;19918;-74
2022/04/30 06:00:26;;;;;;;;;;;16.30;99.90;;;;;;5010473;28;19909;-73
2022/04/30 06:02:52;;;;;;;;;;;16.40;99.90;;;;;;5008461;28;19910;-72
2022/04/30 06:05:18;;;;;;;;;;;16.50;99.90;;;;;;5011264;28;19909;-73
2022/04/30 06:07:44;;;;;;;;;;;16.60;99.90;;;;;;5011200;28;19916;-74
2022/04/30 06:10:09;;;;;;;;;;;16.70;99.90;;;;;;5010297;28;19910;-74
2022/04/30 06:12:35;;;;;;;;;;;16.70;99.90;;;;;;5008782;28;19916;-74
2022/04/30 06:15:01;;;;;;;;;;;16.90;99.90;;;;;;5010815;28;19905;-76
2022/04/30 06:17:27;;;;;;;;;;;17.00;99.90;;;;;;5009295;28;19940;-71
2022/04/30 06:19:52;;;;;;;;;;;17.00;99.90;;;;;;5009592;28;19949;-75
2022/04/30 06:22:18;;;;;;;;;;;17.10;99.90;;;;;;5004783;28;19948;-73
2022/04/30 06:24:43;;;;;;;;;;;17.10;99.90;;;;;;5010099;28;19940;-71
2022/04/30 06:27:09;;;;;;;;;;;17.20;99.90;;;;;;5011441;28;19935;-74
2022/04/30 06:29:35;;;;;;;;;;;17.30;99.90;;;;;;5009877;28;20000;-74
2022/04/30 06:32:01;;;;;;;;;;;17.50;99.90;;;;;;5008705;28;19909;-73
2022/04/30 06:34:26;;;;;;;;;;;17.60;99.90;;;;;;5013419;28;20296;-75
2022/04/30 06:36:52;;;;;;;;;;;17.60;99.90;;;;;;5009361;28;19924;-75
2022/04/30 06:39:19;;;;;;;;;;;17.60;99.90;;;;;;5006252;28;19933;-75
2022/04/30 06:41:44;;;;;;;;;;;17.70;99.90;;;;;;5009676;28;20285;-74
2022/04/30 06:44:10;;;;;;;;;;;17.80;99.90;;;;;;5005170;28;20393;-69
2022/04/30 06:46:36;;;;;;;;;;;17.80;99.90;;;;;;5008577;28;19914;-71
2022/04/30 06:49:02;;;;;;;;;;;17.80;99.90;;;;;;5008496;28;19913;-72
2022/04/30 06:51:28;;;;;;;;;;;17.80;99.90;;;;;;5010542;28;19916;-74
2022/04/30 06:59:22;;;;;;;;;;;17.80;99.90;;;;;;5004144;28;19919;-75
2022/04/30 07:02:01;;;;;;;;;;;17.70;99.90;;;;;;5008459;28;19910;-74
2022/04/30 07:04:28;;;;;;;;;;;17.80;99.90;;;;;;5002964;28;20513;-74
2022/04/30 07:06:54;;;;;;;;;;;17.80;99.90;;;;;;5002136;28;19917;-74
2022/04/30 07:09:20;;;;;;;;;;;17.90;99.90;;;;;;5004181;28;20338;-73
2022/04/30 07:11:45;;;;;;;;;;;18.00;99.90;;;;;;5011091;28;19960;-73
2022/04/30 07:14:11;;;;;;;;;;;18.00;99.90;;;;;;5006528;28;19909;-77
2022/04/30 07:16:36;;;;;;;;;;;18.10;99.90;;;;;;5008580;28;20337;-74
2022/04/30 07:19:03;;;;;;;;;;;18.30;99.90;;;;;;5009234;28;19956;-74
2022/04/30 07:21:31;;;;;;;;;;;18.60;99.90;;;;;;5007923;28;19909;-74
2022/04/30 07:23:57;;;;;;;;;;;18.60;99.90;;;;;;5014624;28;19905;-74
2022/04/30 07:26:22;;;;;;;;;;;18.60;99.90;;;;;;5017581;28;20005;-76
2022/04/30 07:28:48;;;;;;;;;;;18.60;99.90;;;;;;5008651;28;20348;-76
2022/04/30 07:31:14;;;;;;;;;;;18.60;99.60;;;;;;5009285;28;20626;-74
2022/04/30 07:33:39;;;;;;;;;;;18.70;99.90;;;;;;5009381;28;20011;-74
2022/04/30 07:36:05;;;;;;;;;;;18.80;99.90;;;;;;5009673;28;19909;-75
2022/04/30 07:38:31;;;;;;;;;;;19.00;99.90;;;;;;5011854;28;19909;-73
2022/04/30 07:40:56;;;;;;;;;;;18.90;99.20;;;;;;5012200;28;19920;-74
2022/04/30 07:43:22;;;;;;;;;;;18.80;98.70;;;;;;5012462;28;20056;-74
2022/04/30 07:45:48;;;;;;;;;;;18.70;99.40;;;;;;5004575;28;20409;-74
2022/04/30 07:48:14;;;;;;;;;;;18.90;99.70;;;;;;5011065;28;19910;-75
2022/04/30 07:50:41;;;;;;;;;;;19.10;99.90;;;;;;5014208;28;20373;-73
2022/04/30 07:53:07;;;;;;;;;;;19.30;99.20;;;;;;5017685;28;20400;-75
2022/04/30 07:55:33;;;;;;;;;;;19.30;98.10;;;;;;5001543;28;19924;-76
2022/04/30 07:57:59;;;;;;;;;;;19.30;98.10;;;;;;5014093;28;19905;-75
2022/04/30 08:00:25;;;;;;;;;;;19.10;97.80;;;;;;5003093;28;19917;-74
2022/04/30 08:02:54;;;;;;;;;;;19.10;98.00;;;;;;4996825;28;19940;-77
2022/04/30 08:05:19;;;;;;;;;;;19.10;97.90;;;;;;5010394;28;20361;-77
2022/04/30 08:07:45;;;;;;;;;;;19.20;98.30;;;;;;5018048;28;19937;-76
2022/04/30 08:10:11;;;;;;;;;;;19.40;97.60;;;;;;5026787;28;20007;-73
2022/04/30 08:12:36;;;;;;;;;;;19.40;96.80;;;;;;5014158;28;20314;-77
2022/04/30 08:15:02;;;;;;;;;;;19.40;96.70;;;;;;5010665;28;20261;-71
2022/04/30 08:17:29;;;;;;;;;;;19.50;97.10;;;;;;5012309;28;19909;-72
2022/04/30 08:19:55;;;;;;;;;;;19.40;96.40;;;;;;5011346;28;19910;-73
2022/04/30 08:22:21;;;;;;;;;;;19.60;96.90;;;;;;5012055;28;19976;-68
2022/04/30 08:24:46;;;;;;;;;;;19.70;96.40;;;;;;5009481;28;19956;-71
2022/04/30 08:27:12;;;;;;;;;;;19.70;95.80;;;;;;5009863;28;19909;-70
2022/04/30 08:29:38;;;;;;;;;;;19.60;95.60;;;;;;5004288;28;19956;-71
2022/04/30 08:32:04;;;;;;;;;;;19.50;95.90;;;;;;5010609;28;19995;-71
2022/04/30 08:34:30;;;;;;;;;;;19.50;95.90;;;;;;5002990;28;20114;-70
2022/04/30 08:36:55;;;;;;;;;;;19.60;95.70;;;;;;5008993;28;19976;-69
2022/04/30 08:39:21;;;;;;;;;;;19.70;96.50;;;;;;5010631;28;19922;-70
2022/04/30 08:41:46;;;;;;;;;;;19.70;96.50;;;;;;5006704;28;19909;-70
2022/04/30 08:44:16;;;;;;;;;;;19.80;96.60;;;;;;5005152;28;19917;-70
2022/04/30 08:46:42;;;;;;;;;;;19.90;96.10;;;;;;5007635;28;19984;-71
2022/04/30 08:49:08;;;;;;;;;;;20.00;96.20;;;;;;5008207;28;19914;-69
2022/04/30 08:51:34;;;;;;;;;;;20.00;96.20;;;;;;4999928;28;19918;-70
2022/04/30 08:53:59;;;;;;;;;;;20.10;96.30;;;;;;5006009;28;20270;-69
2022/04/30 08:56:25;;;;;;;;;;;20.10;96.10;;;;;;5012479;28;20381;-70
2022/04/30 08:58:51;;;;;;;;;;;20.10;96.00;;;;;;5005614;28;20019;-72
2022/04/30 09:01:17;;;;;;;;;;;20.00;96.30;;;;;;5009872;28;19909;-69
2022/04/30 09:03:45;;;;;;;;;;;20.10;96.30;;;;;;5011334;28;19905;-70
2022/04/30 09:06:16;;;;;;;;;;;20.10;95.50;;;;;;5011237;28;19910;-70
2022/04/30 09:08:49;;;;;;;;;;;20.20;95.00;;;;;;5012844;28;19905;-67
2022/04/30 09:11:14;;;;;;;;;;;20.30;95.40;;;;;;5007520;28;19909;-69
2022/04/30 09:13:44;;;;;;;;;;;20.50;95.90;;;;;;5007168;28;20254;-70
2022/04/30 09:16:20;;;;;;;;;;;20.60;96.00;;;;;;5011603;28;19905;-71
2022/04/30 09:18:46;;;;;;;;;;;20.70;96.10;;;;;;5021673;28;19909;-70
2022/04/30 09:21:15;;;;;;;;;;;20.90;96.50;;;;;;5011582;28;19905;-70
2022/04/30 09:23:42;;;;;;;;;;;21.00;93.90;;;;;;5013358;28;19905;-70
2022/04/30 09:26:08;;;;;;;;;;;20.90;93.10;;;;;;5012313;28;20040;-70
2022/04/30 09:28:36;;;;;;;;;;;20.70;93.30;;;;;;5014072;28;20386;-70
2022/04/30 09:31:14;;;;;;;;;;;20.70;94.10;;;;;;5009339;28;20389;-69
2022/04/30 09:33:56;;;;;;;;;;;20.60;94.10;;;;;;5016142;28;19913;-69
2022/04/30 09:39:16;;;;;;;;;;;20.70;95.20;;;;;;5012614;28;19920;-71
2022/04/30 09:41:42;;;;;;;;;;;21.00;95.20;;;;;;5010595;28;19955;-71
2022/04/30 09:44:08;;;;;;;;;;;21.10;94.40;;;;;;5009448;28;20319;-70
2022/04/30 09:46:37;;;;;;;;;;;21.20;93.90;;;;;;5010461;28;20365;-70
2022/04/30 09:54:32;;;;;;;;;;;21.00;94.10;;;;;;5008688;28;19964;-71
2022/04/30 09:56:58;;;;;;;;;;;20.60;96.50;;;;;;5011099;28;19905;-69
2022/04/30 09:59:25;;;;;;;;;;;20.40;96.90;;;;;;5009057;28;20008;-69
2022/04/30 10:01:52;;;;;;;;;;;20.40;96.60;;;;;;5009441;28;19913;-69
2022/04/30 10:04:18;;;;;;;;;;;20.50;97.60;;;;;;5008891;28;19909;-69
2022/04/30 10:06:45;;;;;;;;;;;20.50;97.50;;;;;;5010680;28;20329;-69
2022/04/30 10:09:15;;;;;;;;;;;20.60;97.30;;;;;;5011901;28;19921;-70
2022/04/30 10:11:44;;;;;;;;;;;20.60;96.90;;;;;;5011878;28;19963;-71
2022/04/30 10:14:13;;;;;;;;;;;20.60;96.60;;;;;;5006507;28;20691;-70
2022/04/30 10:16:42;;;;;;;;;;;20.60;95.70;;;;;;5011603;28;20212;-70
2022/04/30 10:19:15;;;;;;;;;;;20.60;96.50;;;;;;5010068;28;19913;-71
2022/04/30 10:21:41;;;;;;;;;;;20.60;96.50;;;;;;5008102;28;20265;-70
2022/04/30 10:24:09;;;;;;;;;;;20.60;95.90;;;;;;5009387;28;19916;-70
2022/04/30 10:26:35;;;;;;;;;;;20.50;96.60;;;;;;5011436;28;20028;-72
2022/04/30 10:29:02;;;;;;;;;;;20.60;95.60;;;;;;5009826;28;20012;-70
2022/04/30 10:31:27;;;;;;;;;;;20.60;95.00;;;;;;5011280;28;19912;-71
2022/04/30 10:33:53;;;;;;;;;;;20.50;94.50;;;;;;5009522;28;19913;-71
2022/04/30 10:36:20;;;;;;;;;;;20.50;94.90;;;;;;5006632;28;19910;-70
2022/04/30 10:38:59;;;;;;;;;;;20.60;95.40;;;;;;5010651;28;20385;-71
2022/04/30 10:41:24;;;;;;;;;;;20.70;95.60;;;;;;5008475;28;20536;-71
2022/04/30 10:43:58;;;;;;;;;;;20.70;96.10;;;;;;5009742;28;19995;-69
2022/04/30 10:46:25;;;;;;;;;;;20.60;95.30;;;;;;5009912;28;20377;-64
2022/04/30 10:48:51;;;;;;;;;;;20.50;96.10;;;;;;5009626;28;19905;-66
2022/04/30 10:51:31;;;;;;;;;;;20.60;96.80;;;;;;5008896;28;20433;-64
2022/04/30 10:53:58;;;;;;;;;;;20.60;97.00;;;;;;5007746;28;19910;-65
2022/04/30 10:56:26;;;;;;;;;;;20.60;95.90;;;;;;5009199;28;20040;-63
2022/04/30 10:58:52;;;;;;;;;;;20.70;96.30;;;;;;5007608;28;19983;-63
2022/04/30 11:01:19;;;;;;;;;;;20.80;96.00;;;;;;5008973;28;20377;-65
2022/04/30 11:03:46;;;;;;;;;;;20.70;95.70;;;;;;5008611;28;19909;-63
2022/04/30 11:06:12;;;;;;;;;;;20.70;96.50;;;;;;5010893;28;20408;-64
2022/04/30 11:08:38;;;;;;;;;;;20.80;97.30;;;;;;5009592;28;19956;-62
2022/04/30 11:11:04;;;;;;;;;;;20.80;96.90;;;;;;5009828;28;19916;-64
2022/04/30 11:13:29;;;;;;;;;;;20.90;96.80;;;;;;5009520;28;19905;-65
2022/04/30 11:15:59;;;;;;;;;;;20.90;96.80;;;;;;5004996;28;19913;-63
2022/04/30 11:18:24;;;;;;;;;;;21.00;95.40;;;;;;5009961;28;19917;-65
2022/04/30 11:20:57;;;;;;;;;;;20.80;96.30;;;;;;5008429;28;20001;-65
2022/04/30 11:23:23;;;;;;;;;;;20.80;96.90;;;;;;5003691;28;19913;-65
2022/04/30 11:25:49;;;;;;;;;;;20.90;97.30;;;;;;5008550;28;20288;-65
2022/04/30 11:28:14;;;;;;;;;;;20.90;98.50;;;;;;5008292;28;19909;-64
2022/04/30 11:30:41;;;;;;;;;;;20.80;97.20;;;;;;5008752;28;19910;-64
2022/04/30 11:33:07;;;;;;;;;;;20.80;97.90;;;;;;5014473;28;20004;-66
2022/04/30 11:35:33;;;;;;;;;;;20.60;97.60;;;;;;5009618;28;19909;-68
2022/04/30 11:37:58;;;;;;;;;;;20.50;97.50;;;;;;5010425;28;19920;-65
2022/04/30 11:40:27;;;;;;;;;;;20.50;95.90;;;;;;5010058;28;19917;-64
2022/04/30 11:42:59;;;;;;;;;;;20.50;96.80;;;;;;5013647;28;19913;-65
2022/04/30 11:45:25;;;;;;;;;;;20.50;97.80;;;;;;5009364;28;20281;-67
2022/04/30 11:47:51;;;;;;;;;;;20.50;98.30;;;;;;5014979;28;19925;-66
2022/04/30 11:50:17;;;;;;;;;;;20.80;98.20;;;;;;5009019;28;19914;-65
2022/04/30 11:52:43;;;;;;;;;;;20.90;97.00;;;;;;5013842;28;19914;-65
2022/04/30 11:55:08;;;;;;;;;;;21.00;94.90;;;;;;5013933;28;19906;-64
2022/04/30 11:57:34;;;;;;;;;;;20.90;95.90;;;;;;5012912;28;19909;-65
2022/04/30 12:00:00;;;;;;;;;;;21.10;95.60;;;;;;5012893;28;19909;-66
2022/04/30 12:02:30;;;;;;;;;;;21.10;96.20;;;;;;5013907;28;20011;-63
2022/04/30 12:05:00;;;;;;;;;;;21.20;97.20;;;;;;5013481;28;19906;-64
2022/04/30 12:07:34;;;;;;;;;;;21.20;97.00;;;;;;5014265;28;19912;-70
2022/04/30 12:09:59;;;;;;;;;;;21.30;95.40;;;;;;5012372;28;19909;-69
2022/04/30 12:12:25;;;;;;;;;;;21.20;95.00;;;;;;5013931;28;20510;-72
2022/04/30 12:14:54;;;;;;;;;;;21.20;95.40;;;;;;5013772;28;19996;-71
2022/04/30 12:17:30;;;;;;;;;;;21.20;94.60;;;;;;5008608;28;19917;-71
2022/04/30 12:25:31;;;;;;;;;;;21.30;93.60;;;;;;5013140;28;19956;-72
2022/04/30 12:28:06;;;;;;;;;;;21.20;93.40;;;;;;5011761;28;19913;-71
2022/04/30 12:30:33;;;;;;;;;;;21.20;91.90;;;;;;5012097;28;20332;-72
2022/04/30 12:33:04;;;;;;;;;;;21.30;93.40;;;;;;5009119;28;19917;-70
2022/04/30 12:35:30;;;;;;;;;;;21.30;91.70;;;;;;5009706;28;20008;-69
2022/04/30 12:38:09;;;;;;;;;;;21.50;91.50;;;;;;5009323;28;19909;-68
2022/04/30 12:40:36;;;;;;;;;;;21.50;92.70;;;;;;5010662;28;19959;-70
2022/04/30 12:43:03;;;;;;;;;;;21.40;92.50;;;;;;5020111;28;20262;-71
2022/04/30 12:45:29;;;;;;;;;;;21.30;92.70;;;;;;5012923;28;20376;-70
2022/04/30 12:47:54;;;;;;;;;;;21.50;92.70;;;;;;5016696;28;20345;-73
2022/04/30 12:50:20;;;;;;;;;;;21.50;92.60;;;;;;5014134;28;19905;-72
2022/04/30 12:52:46;;;;;;;;;;;21.40;93.20;;;;;;5011610;28;19905;-70
2022/04/30 12:55:13;;;;;;;;;;;21.40;93.60;;;;;;5012956;28;19981;-69
2022/04/30 12:57:39;;;;;;;;;;;21.60;93.80;;;;;;5013120;28;20373;-69
2022/04/30 13:00:05;;;;;;;;;;;21.60;94.50;;;;;;5018968;28;19913;-71
2022/04/30 13:02:31;;;;;;;;;;;21.80;95.20;;;;;;5013320;28;19917;-72
2022/04/30 13:04:57;;;;;;;;;;;21.90;99.40;;;;;;5010568;28;20369;-72
2022/04/30 13:07:23;;;;;;;;;;;21.80;99.90;;;;;;5012437;28;19905;-72
2022/04/30 13:15:17;;;;;;;;;;;21.20;99.90;;;;;;5016639;28;19916;-70
2022/04/30 13:17:42;;;;;;;;;;;21.20;99.90;;;;;;5013035;28;19905;-69
2022/04/30 13:20:10;;;;;;;;;;;21.20;99.90;;;;;;5010911;28;20000;-70
2022/04/30 13:22:36;;;;;;;;;;;21.00;99.90;;;;;;5006280;28;20055;-72
2022/04/30 13:25:02;;;;;;;;;;;20.60;99.90;;;;;;5011647;28;20340;-72
2022/04/30 13:27:27;;;;;;;;;;;20.40;99.90;;;;;;5015558;28;19925;-71
2022/04/30 13:29:53;;;;;;;;;;;20.40;99.90;;;;;;5013809;28;20385;-70
2022/04/30 13:32:19;;;;;;;;;;;20.40;99.90;;;;;;5009317;28;19935;-73
2022/04/30 13:34:44;;;;;;;;;;;20.20;99.90;;;;;;5014618;28;19920;-72
2022/04/30 13:37:10;;;;;;;;;;;20.30;99.90;;;;;;5014052;28;19905;-71
2022/04/30 13:39:35;;;;;;;;;;;20.50;99.90;;;;;;5012158;28;19913;-71
2022/04/30 13:42:01;;;;;;;;;;;20.60;99.90;;;;;;5009916;28;20461;-72
2022/04/30 13:44:27;;;;;;;;;;;20.70;99.90;;;;;;5012079;28;19906;-70
2022/04/30 13:46:52;;;;;;;;;;;20.70;99.20;;;;;;5008502;28;19925;-71
2022/04/30 13:49:18;;;;;;;;;;;20.70;99.20;;;;;;5011389;28;19909;-72
2022/04/30 13:51:44;;;;;;;;;;;20.70;99.60;;;;;;5017373;28;19912;-73
2022/04/30 13:54:10;;;;;;;;;;;20.90;99.10;;;;;;5015020;28;19991;-70
2022/04/30 13:56:37;;;;;;;;;;;20.90;99.70;;;;;;5008520;28;19982;-70
2022/04/30 13:59:05;;;;;;;;;;;20.90;99.90;;;;;;5011928;28;19905;-71
2022/04/30 14:01:31;;;;;;;;;;;21.00;99.90;;;;;;5012852;28;19944;-69
2022/04/30 14:03:57;;;;;;;;;;;20.80;99.90;;;;;;5007861;28;19953;-70
2022/04/30 14:06:22;;;;;;;;;;;21.00;99.90;;;;;;5003050;28;19913;-73
2022/04/30 14:08:48;;;;;;;;;;;21.00;99.90;;;;;;5008185;28;19917;-69
2022/04/30 14:11:14;;;;;;;;;;;21.10;99.90;;;;;;5010121;28;20334;-69
2022/04/30 14:16:23;;;;;;;;;;;21.30;99.90;;;;;;5011782;28;20392;-71
2022/04/30 14:18:49;;;;;;;;;;;21.30;99.20;;;;;;5008846;28;19909;-70
2022/04/30 14:21:15;;;;;;;;;;;21.30;98.90;;;;;;5010965;28;19913;-69
2022/04/30 14:23:41;;;;;;;;;;;21.10;98.80;;;;;;5012805;28;19913;-70
2022/04/30 14:26:07;;;;;;;;;;;21.00;99.00;;;;;;5011062;28;19916;-70
2022/04/30 14:28:32;;;;;;;;;;;21.00;99.40;;;;;;5010357;28;20285;-71
2022/04/30 14:31:01;;;;;;;;;;;20.90;99.40;;;;;;5010862;28;20292;-70
2022/04/30 14:33:27;;;;;;;;;;;21.00;99.30;;;;;;5009052;28;19913;-71
2022/04/30 14:35:52;;;;;;;;;;;21.20;99.50;;;;;;5010501;28;20379;-70
2022/04/30 14:38:18;;;;;;;;;;;21.40;98.80;;;;;;5007286;28;19909;-72
2022/04/30 14:40:44;;;;;;;;;;;21.50;99.20;;;;;;5009393;28;20007;-72
2022/04/30 14:43:10;;;;;;;;;;;21.70;99.10;;;;;;5010864;28;19909;-70
2022/04/30 14:45:38;;;;;;;;;;;21.80;97.80;;;;;;5010090;28;19992;-69
2022/04/30 14:48:03;;;;;;;;;;;21.90;98.00;;;;;;5009473;28;19944;-69
2022/04/30 14:50:29;;;;;;;;;;;21.90;97.50;;;;;;5009042;28;19909;-69
2022/04/30 14:52:54;;;;;;;;;;;22.20;98.00;;;;;;5006992;28;19913;-69
2022/04/30 14:55:20;;;;;;;;;;;22.30;98.10;;;;;;5009749;28;19932;-72
2022/04/30 14:57:46;;;;;;;;;;;22.20;98.50;;;;;;5010831;28;19935;-69
2022/04/30 15:00:28;;;;;;;;;;;22.20;97.80;;;;;;5008223;28;19917;-70